createdAt,value
2022-11-04T00:00:08.539Z,96441.91
2022-11-04T00:03:10.452Z,96432.97
2022-11-04T00:06:12.150Z,96436.63
2022-11-04T00:09:19.959Z,96448.44
2022-11-04T00:12:27.451Z,96441.47
2022-11-04T00:15:47.351Z,96450.00
2022-11-04T00:18:48.975Z,96456.66
2022-11-04T00:22:09.606Z,96458.25
2022-11-04T00:25:29.944Z,96448.31
2022-11-04T00:28:43.527Z,96438.34
2022-11-04T00:32:03.646Z,96442.38
2022-11-04T00:35:05.876Z,96457.78
2022-11-04T00:38:07.565Z,96455.38
2022-11-04T00:41:26.357Z,96457.78
2022-11-04T00:44:28.397Z,96442.09
2022-11-04T00:47:29.950Z,96440.66
2022-11-04T00:50:31.427Z,96437.19
2022-11-04T00:53:32.955Z,96438.41
2022-11-04T00:56:38.150Z,96446.16
2022-11-04T00:59:42.467Z,96449.78
2022-11-04T01:02:44.045Z,96437.81
2022-11-04T01:05:45.590Z,96444.28
2022-11-04T01:08:47.728Z,96443.28
2022-11-04T01:11:49.513Z,96443.66
2022-11-04T01:14:51.039Z,96445.72
2022-11-04T01:17:52.529Z,96458.09
2022-11-04T01:20:54.228Z,96461.56
2022-11-04T01:23:55.868Z,96454.03
2022-11-04T01:26:57.384Z,96458.88
2022-11-04T01:29:58.964Z,96460.53
2022-11-04T01:33:00.477Z,96450.94
2022-11-04T01:36:03.011Z,96446.47
2022-11-04T01:39:04.598Z,96452.34
2022-11-04T01:42:06.302Z,96450.28
2022-11-04T01:45:14.649Z,96433.78
2022-11-04T01:48:24.325Z,96427.06
2022-11-04T01:51:28.480Z,96432.50
2022-11-04T01:54:30.286Z,96431.28
2022-11-04T01:57:40.489Z,96422.13
2022-11-04T02:00:43.310Z,96430.59
2022-11-04T02:03:53.193Z,96428.34
2022-11-04T02:06:57.809Z,96424.06
2022-11-04T02:09:59.354Z,96420.00
2022-11-04T02:13:05.732Z,96425.66
2022-11-04T02:16:17.748Z,96413.22
2022-11-04T02:19:54.574Z,96423.78
2022-11-04T02:23:19.906Z,96406.94
2022-11-04T02:26:39.595Z,96409.56
2022-11-04T02:30:15.641Z,96415.09
2022-11-04T02:33:22.711Z,96415.09
2022-11-04T02:36:42.530Z,96408.00
2022-11-04T02:40:04.175Z,96407.56
2022-11-04T02:43:28.712Z,96423.38
2022-11-04T02:46:38.392Z,96425.22
2022-11-04T02:49:47.779Z,96405.53
2022-11-04T02:52:59.840Z,96414.28
2022-11-04T02:56:03.446Z,96414.28
2022-11-04T02:59:10.760Z,96402.72
2022-11-04T03:02:18.671Z,96409.19
2022-11-04T03:05:26.445Z,96419.13
2022-11-04T03:08:32.394Z,96429.69
2022-11-04T03:11:36.114Z,96432.94
2022-11-04T03:14:42.319Z,96400.66
2022-11-04T03:17:58.219Z,96400.03
2022-11-04T03:21:04.546Z,96412.03
2022-11-04T03:24:06.523Z,96408.56
2022-11-04T03:27:24.937Z,96417.31
2022-11-04T03:30:31.188Z,96405.31
2022-11-04T03:33:45.903Z,96393.31
2022-11-04T03:36:47.522Z,96393.69
2022-11-04T03:39:49.207Z,96402.97
2022-11-04T03:43:00.684Z,96380.63
2022-11-04T03:46:02.165Z,96377.19
2022-11-04T03:49:05.436Z,96374.13
2022-11-04T03:52:07.149Z,96388.69
2022-11-04T03:55:10.856Z,96389.88
2022-11-04T03:58:34.407Z,96394.28
2022-11-04T04:02:02.112Z,96401.31
2022-11-04T04:05:17.663Z,96400.50
2022-11-04T04:08:38.378Z,96399.50
2022-11-04T04:11:39.820Z,96393.66
2022-11-04T04:14:46.589Z,96401.06
2022-11-04T04:18:03.691Z,96395.13
2022-11-04T04:21:09.412Z,96392.22
2022-11-04T04:24:32.792Z,96382.69
2022-11-04T04:27:35.808Z,96390.72
2022-11-04T04:30:38.534Z,96386.19
2022-11-04T04:33:40.026Z,96389.25
2022-11-04T04:36:46.858Z,96385.19
2022-11-04T04:40:13.240Z,96387.00
2022-11-04T04:43:35.264Z,96368.75
2022-11-04T04:46:39.001Z,96357.69
2022-11-04T04:49:54.713Z,96353.78
2022-11-04T04:52:59.235Z,96344.72
2022-11-04T04:56:00.743Z,96346.63
2022-11-04T04:59:02.351Z,96333.47
2022-11-04T05:02:04.036Z,96327.94
2022-11-04T05:05:06.339Z,96315.25
2022-11-04T05:08:08.824Z,96314.97
2022-11-04T05:11:10.863Z,96313.53
2022-11-04T05:14:12.413Z,96318.78
2022-11-04T05:17:14.889Z,96321.41
2022-11-04T05:20:16.500Z,96317.00
2022-11-04T05:23:18.053Z,96314.19
2022-11-04T05:26:19.636Z,96310.69
2022-11-04T05:29:21.758Z,96293.28
2022-11-04T05:32:23.281Z,96302.81
2022-11-04T05:35:24.898Z,96302.81
2022-11-04T05:38:26.414Z,96298.38
2022-11-04T05:41:27.887Z,96298.16
2022-11-04T05:44:32.177Z,96306.72
2022-11-04T05:47:34.122Z,96299.38
2022-11-04T05:50:35.707Z,96284.75
2022-11-04T05:53:37.179Z,96284.38
2022-11-04T05:56:38.668Z,96280.94
2022-11-04T05:59:40.211Z,96280.84
2022-11-04T06:02:41.873Z,96276.78
2022-11-04T06:05:43.602Z,96273.97
2022-11-04T06:08:45.499Z,96282.50
2022-11-04T06:11:47.030Z,96274.00
2022-11-04T06:14:48.649Z,96276.88
2022-11-04T06:17:50.186Z,96282.13
2022-11-04T06:21:26.559Z,96290.84
2022-11-04T06:24:28.078Z,96288.66
2022-11-04T06:27:29.606Z,96292.44
2022-11-04T06:30:31.133Z,96296.91
2022-11-04T06:33:36.787Z,96297.72
2022-11-04T06:36:38.660Z,96301.00
2022-11-04T06:39:40.450Z,96312.97
2022-11-04T06:42:43.082Z,96321.41
2022-11-04T06:45:44.585Z,96315.03
2022-11-04T06:48:46.083Z,96320.91
2022-11-04T06:51:48.179Z,96323.25
2022-11-04T06:54:49.769Z,96322.69
2022-11-04T06:57:51.365Z,96324.94
2022-11-04T07:00:53.657Z,96325.34
2022-11-04T07:03:58.037Z,96327.97
2022-11-04T07:06:59.561Z,96321.34
2022-11-04T07:10:01.083Z,96315.59
2022-11-04T07:13:02.615Z,96311.88
2022-11-04T07:16:06.239Z,96305.63
2022-11-04T07:19:07.847Z,96305.50
2022-11-04T07:22:09.706Z,96306.16
2022-11-04T07:25:11.329Z,96307.03
2022-11-04T07:28:13.211Z,96300.56
2022-11-04T07:31:16.003Z,96301.03
2022-11-04T07:34:17.526Z,96308.81
2022-11-04T07:37:19.005Z,96294.41
2022-11-04T07:40:20.488Z,96298.72
2022-11-04T07:43:22.101Z,96286.56
2022-11-04T07:46:23.616Z,96294.91
2022-11-04T07:49:25.758Z,96288.03
2022-11-04T07:52:27.382Z,96279.75
2022-11-04T07:55:28.903Z,96275.34
2022-11-04T07:58:30.401Z,96279.66
2022-11-04T08:01:31.975Z,96266.50
2022-11-04T08:04:33.567Z,96267.72
2022-11-04T08:07:35.103Z,96266.09
2022-11-04T08:10:36.716Z,96249.06
2022-11-04T08:13:38.310Z,96253.94
2022-11-04T08:16:39.882Z,96256.38
2022-11-04T08:19:41.409Z,96249.13
2022-11-04T08:22:42.900Z,96248.72
2022-11-04T08:25:45.121Z,96257.44
2022-11-04T08:28:47.678Z,96256.44
2022-11-04T08:31:49.314Z,96253.59
2022-11-04T08:34:51.420Z,96248.91
2022-11-04T08:37:53.001Z,96232.44
2022-11-04T08:41:00.098Z,96243.63
2022-11-04T08:44:04.170Z,96247.53
2022-11-04T08:47:05.972Z,96253.66
2022-11-04T08:50:07.623Z,96258.94
2022-11-04T08:53:09.452Z,96256.09
2022-11-04T08:56:21.462Z,96262.41
2022-11-04T08:59:23.144Z,96270.97
2022-11-04T09:02:24.650Z,96271.97
2022-11-04T09:05:26.319Z,96266.25
2022-11-04T09:08:27.795Z,96271.06
2022-11-04T09:11:33.903Z,96267.81
2022-11-04T09:14:35.463Z,96272.00
2022-11-04T09:17:37.539Z,96273.50
2022-11-04T09:20:39.633Z,96270.75
2022-11-04T09:23:41.147Z,96274.84
2022-11-04T09:26:44.662Z,96281.81
2022-11-04T09:29:46.206Z,96279.50
2022-11-04T09:32:52.605Z,96281.25
2022-11-04T09:35:57.714Z,96276.81
2022-11-04T09:38:59.263Z,96277.88
2022-11-04T09:42:49.158Z,96278.28
2022-11-04T09:45:50.839Z,96271.41
2022-11-04T09:48:56.860Z,96279.00
2022-11-04T09:52:01.421Z,96281.28
2022-11-04T09:55:20.414Z,96270.25
2022-11-04T09:58:22.045Z,96276.72
2022-11-04T10:01:50.740Z,96273.16
2022-11-04T10:05:10.170Z,96278.00
2022-11-04T10:08:37.538Z,96275.94
2022-11-04T10:12:04.246Z,96268.31
2022-11-04T10:15:28.390Z,96275.66
2022-11-04T10:18:53.924Z,96272.72
2022-11-04T10:22:04.031Z,96275.63
2022-11-04T10:25:13.465Z,96273.88
2022-11-04T10:28:20.122Z,96277.19
2022-11-04T10:31:21.652Z,96271.06
2022-11-04T10:34:43.089Z,96267.63
2022-11-04T10:37:47.474Z,96258.97
2022-11-04T10:40:53.291Z,96258.75
2022-11-04T10:43:59.326Z,96263.00
2022-11-04T10:47:25.124Z,96258.72
2022-11-04T10:50:34.751Z,96256.72
2022-11-04T10:53:37.436Z,96255.44
2022-11-04T10:56:43.362Z,96254.94
2022-11-04T10:59:53.359Z,96256.59
2022-11-04T11:02:54.911Z,96254.75
2022-11-04T11:06:14.356Z,96255.50
2022-11-04T11:09:25.782Z,96257.66
2022-11-04T11:12:50.518Z,96253.56
2022-11-04T11:16:07.366Z,96243.00
2022-11-04T11:19:11.756Z,96247.81
2022-11-04T11:22:39.794Z,96246.91
2022-11-04T11:25:50.279Z,96256.69
2022-11-04T11:28:59.091Z,96248.69
2022-11-04T11:32:01.243Z,96252.81
2022-11-04T11:35:07.737Z,96253.94
2022-11-04T11:38:23.361Z,96250.19
2022-11-04T11:41:31.422Z,96249.22
2022-11-04T11:44:51.046Z,96248.69
2022-11-04T11:47:55.161Z,96257.06
2022-11-04T11:50:59.859Z,96259.13
2022-11-04T11:54:15.005Z,96250.84
2022-11-04T12:01:42.496Z,96248.16
2022-11-04T12:11:42.176Z,96243.13
2022-11-04T12:15:02.523Z,96244.28
2022-11-04T12:18:34.194Z,96249.34
2022-11-04T12:21:41.419Z,96242.22
2022-11-04T12:25:05.105Z,96248.75
2022-11-04T12:28:09.657Z,96244.97
2022-11-04T12:31:36.985Z,96247.00
2022-11-04T12:34:56.963Z,96244.78
2022-11-04T12:38:23.412Z,96246.91
2022-11-04T12:45:33.001Z,96252.91
2022-11-04T12:49:07.087Z,96256.41
2022-11-04T12:52:47.390Z,96257.66
2022-11-04T12:56:17.880Z,96261.41
2022-11-04T12:59:31.742Z,96263.00
2022-11-04T13:02:48.930Z,96266.38
2022-11-04T13:06:19.566Z,96280.88
2022-11-04T13:09:36.539Z,96271.03
2022-11-04T13:12:42.738Z,96269.28
2022-11-04T13:15:50.007Z,96274.41
2022-11-04T13:18:52.504Z,96268.75
2022-11-04T13:21:56.190Z,96272.34
2022-11-04T13:25:06.474Z,96266.44
2022-11-04T13:28:13.441Z,96261.38
2022-11-04T13:31:46.646Z,96267.59
2022-11-04T13:35:04.771Z,96263.28
2022-11-04T13:38:13.132Z,96263.44
2022-11-04T13:41:35.783Z,96266.47
2022-11-04T13:44:45.056Z,96277.28
2022-11-04T13:47:58.580Z,96267.16
2022-11-04T13:51:07.423Z,96272.09
2022-11-04T13:54:31.432Z,96275.38
2022-11-04T13:57:56.551Z,96271.84
2022-11-04T14:01:34.999Z,96280.25
2022-11-04T14:04:38.442Z,96281.63
2022-11-04T14:08:01.658Z,96285.06
2022-11-04T14:11:10.857Z,96283.09
2022-11-04T14:14:19.842Z,96287.91
2022-11-04T14:17:33.312Z,96288.31
2022-11-04T14:20:37.060Z,96290.53
2022-11-04T14:23:41.136Z,96288.13
2022-11-04T14:26:43.876Z,96293.53
2022-11-04T14:29:51.750Z,96296.88
2022-11-04T14:32:57.199Z,96297.88
2022-11-04T14:36:14.434Z,96298.13
2022-11-04T14:39:15.854Z,96300.84
2022-11-04T14:42:46.526Z,96314.97
2022-11-04T14:45:48.459Z,96314.25
2022-11-04T14:48:55.864Z,96315.75
2022-11-04T14:51:58.661Z,96318.09
2022-11-04T14:55:15.876Z,96315.13
2022-11-04T14:58:27.109Z,96324.78
2022-11-04T15:01:34.879Z,96327.06
2022-11-04T15:04:36.874Z,96335.03
2022-11-04T15:07:40.646Z,96339.97
2022-11-04T15:10:42.566Z,96338.50
2022-11-04T15:13:47.758Z,96339.16
2022-11-04T15:16:54.404Z,96341.16
2022-11-04T15:20:00.308Z,96346.06
2022-11-04T15:23:04.287Z,96348.88
2022-11-04T15:26:06.234Z,96354.97
2022-11-04T15:29:11.634Z,96351.94
2022-11-04T15:32:17.753Z,96355.56
2022-11-04T15:35:19.778Z,96356.00
2022-11-04T15:38:22.353Z,96357.19
2022-11-04T15:41:44.693Z,96355.53
2022-11-04T15:44:52.027Z,96360.56
2022-11-04T15:48:24.275Z,96368.72
2022-11-04T15:51:27.406Z,96376.66
2022-11-04T15:54:31.854Z,96375.81
2022-11-04T15:57:40.254Z,96387.22
2022-11-04T16:00:51.470Z,96392.09
2022-11-04T16:03:58.914Z,96397.75
2022-11-04T16:07:06.400Z,96391.84
2022-11-04T16:10:30.843Z,96407.28
2022-11-04T16:13:32.448Z,96406.25
2022-11-04T16:16:33.949Z,96412.34
2022-11-04T16:19:35.525Z,96416.53
2022-11-04T16:22:39.474Z,96427.34
2022-11-04T16:25:40.990Z,96431.00
2022-11-04T16:28:43.431Z,96429.50
2022-11-04T16:31:45.027Z,96435.03
2022-11-04T16:34:49.585Z,96445.97
2022-11-04T16:37:53.436Z,96449.44
2022-11-04T16:40:55.004Z,96443.16
2022-11-04T16:43:56.968Z,96453.09
2022-11-04T16:47:00.050Z,96454.09
2022-11-04T16:50:01.988Z,96461.53
2022-11-04T16:53:03.705Z,96479.38
2022-11-04T16:56:06.791Z,96486.25
2022-11-04T16:59:11.632Z,96498.06
2022-11-04T17:02:17.845Z,96494.00
2022-11-04T17:05:20.558Z,96496.75
2022-11-04T17:08:26.382Z,96504.50
2022-11-04T17:11:30.256Z,96513.00
2022-11-04T17:14:31.942Z,96516.97
2022-11-04T17:17:33.521Z,96520.06
2022-11-04T17:20:34.999Z,96515.00
2022-11-04T17:23:36.486Z,96522.72
2022-11-04T17:26:38.222Z,96533.72
2022-11-04T17:29:39.944Z,96540.03
2022-11-04T17:32:42.427Z,96545.75
2022-11-04T17:35:46.149Z,96547.13
2022-11-04T17:38:48.090Z,96549.91
2022-11-04T17:42:08.186Z,96555.06
2022-11-04T17:45:09.819Z,96563.91
2022-11-04T17:48:14.062Z,96571.19
2022-11-04T17:51:15.627Z,96579.50
2022-11-04T17:54:17.257Z,96577.97
2022-11-04T17:57:18.847Z,96587.88
2022-11-04T18:00:24.165Z,96591.28
2022-11-04T18:03:25.675Z,96585.63
2022-11-04T18:06:30.537Z,96599.09
2022-11-04T18:09:33.703Z,96601.16
2022-11-04T18:12:41.150Z,96611.19
2022-11-04T18:15:42.625Z,96614.19
2022-11-04T18:18:44.125Z,96621.72
2022-11-04T18:21:47.171Z,96623.16
2022-11-04T18:24:48.843Z,96628.91
2022-11-04T18:27:50.403Z,96637.13
2022-11-04T18:30:52.415Z,96638.91
2022-11-04T18:33:54.398Z,96652.75
2022-11-04T18:36:56.816Z,96653.13
2022-11-04T18:39:58.325Z,96666.06
2022-11-04T18:43:06.082Z,96656.03
2022-11-04T18:46:12.744Z,96667.16
2022-11-04T18:49:15.707Z,96666.72
2022-11-04T18:52:17.215Z,96675.81
2022-11-04T18:55:18.699Z,96685.91
2022-11-04T18:58:20.220Z,96677.25
2022-11-04T19:01:24.970Z,96678.81
2022-11-04T19:04:26.598Z,96670.63
2022-11-04T19:07:28.042Z,96682.44
2022-11-04T19:10:29.539Z,96695.28
2022-11-04T19:13:30.998Z,96696.94
2022-11-04T19:16:33.123Z,96704.56
2022-11-04T19:19:34.584Z,96704.81
2022-11-04T19:22:36.127Z,96717.63
2022-11-04T19:25:41.223Z,96700.53
2022-11-04T19:28:48.690Z,96711.72
2022-11-04T19:31:50.533Z,96721.56
2022-11-04T19:34:52.138Z,96723.81
2022-11-04T19:37:53.891Z,96740.50
2022-11-04T19:40:55.574Z,96733.22
2022-11-04T19:43:57.552Z,96744.94
2022-11-04T19:46:59.097Z,96746.41
2022-11-04T19:50:00.635Z,96750.22
2022-11-04T19:53:02.158Z,96757.69
2022-11-04T19:56:04.251Z,96761.50
2022-11-04T19:59:07.284Z,96758.69
2022-11-04T20:02:13.740Z,96764.78
2022-11-04T20:05:15.774Z,96771.25
2022-11-04T20:08:17.296Z,96776.06
2022-11-04T20:11:20.523Z,96783.38
2022-11-04T20:14:37.746Z,96779.59
2022-11-04T20:17:39.318Z,96778.31
2022-11-04T20:20:40.942Z,96788.97
2022-11-04T20:23:45.807Z,96786.50
2022-11-04T20:26:47.671Z,96791.63
2022-11-04T20:29:51.354Z,96804.97
2022-11-04T20:32:52.875Z,96798.06
2022-11-04T20:35:54.360Z,96797.69
2022-11-04T20:39:07.429Z,96807.44
2022-11-04T20:42:09.319Z,96821.72
2022-11-04T20:45:11.067Z,96823.31
2022-11-04T20:48:12.931Z,96830.44
2022-11-04T20:51:22.882Z,96829.44
2022-11-04T20:54:24.700Z,96832.56
2022-11-04T20:57:26.406Z,96838.63
2022-11-04T21:00:28.453Z,96837.63
2022-11-04T21:03:33.074Z,96845.75
2022-11-04T21:06:38.749Z,96851.28
2022-11-04T21:09:45.701Z,96855.91
2022-11-04T21:12:53.623Z,96871.88
2022-11-04T21:15:57.991Z,96874.03
2022-11-04T21:18:59.738Z,96874.38
2022-11-04T21:22:01.225Z,96874.56
2022-11-04T21:25:02.749Z,96883.31
2022-11-04T21:28:05.162Z,96874.22
2022-11-04T21:31:09.455Z,96870.94
2022-11-04T21:34:12.109Z,96875.56
2022-11-04T21:37:13.619Z,96883.81
2022-11-04T21:40:15.133Z,96885.00
2022-11-04T21:43:16.649Z,96891.91
2022-11-04T21:46:18.173Z,96895.38
2022-11-04T21:49:19.908Z,96903.94
2022-11-04T21:52:21.548Z,96911.03
2022-11-04T21:55:23.076Z,96900.28
2022-11-04T21:58:24.631Z,96906.47
2022-11-04T22:01:27.982Z,96905.81
2022-11-04T22:04:39.238Z,96910.91
2022-11-04T22:07:59.632Z,96912.53
2022-11-04T22:11:13.270Z,96920.28
2022-11-04T22:14:14.795Z,96919.47
2022-11-04T22:17:16.319Z,96926.66
2022-11-04T22:20:18.178Z,96929.47
2022-11-04T22:23:19.794Z,96928.84
2022-11-04T22:26:26.901Z,96930.84
2022-11-04T22:29:28.447Z,96926.75
2022-11-04T22:32:29.942Z,96925.91
2022-11-04T22:35:31.435Z,96930.53
2022-11-04T22:38:34.191Z,96930.75
2022-11-04T22:41:35.959Z,96942.56
2022-11-04T22:44:37.484Z,96940.75
2022-11-04T22:47:38.938Z,96938.91
2022-11-04T22:50:40.434Z,96941.38
2022-11-04T22:53:42.321Z,96956.22
2022-11-04T22:56:44.262Z,96952.09
2022-11-04T22:59:45.741Z,96953.75
2022-11-04T23:02:47.335Z,96961.84
2022-11-04T23:05:48.998Z,96958.03
2022-11-04T23:08:59.677Z,96952.41
2022-11-04T23:12:30.822Z,96951.25
2022-11-04T23:15:50.739Z,96958.16
2022-11-04T23:18:52.319Z,96952.41
2022-11-04T23:22:12.538Z,96957.56
2022-11-04T23:25:14.146Z,96959.75
2022-11-04T23:28:54.155Z,96962.72
2022-11-04T23:31:55.865Z,96965.47
2022-11-04T23:35:16.080Z,96962.66
2022-11-04T23:38:19.025Z,96973.84
2022-11-04T23:41:39.006Z,96975.50
2022-11-04T23:44:59.019Z,96970.56
2022-11-04T23:48:19.181Z,96972.75
2022-11-04T23:51:39.322Z,96966.81
2022-11-04T23:54:59.121Z,96972.09
2022-11-04T23:58:19.180Z,96972.25
